createdAt,value
2022-12-23T00:01:32.160Z,99205.72
2022-12-23T00:03:59.848Z,99198.53
2022-12-23T00:06:27.352Z,99200.84
2022-12-23T00:09:00.192Z,99217.28
2022-12-23T00:11:28.064Z,99214.44
2022-12-23T00:14:20.679Z,99221.53
2022-12-23T00:16:51.167Z,99216.31
2022-12-23T00:19:18.516Z,99212.78
2022-12-23T00:21:45.674Z,99210.69
2022-12-23T00:24:12.684Z,99200.66
2022-12-23T00:26:39.625Z,99201.81
2022-12-23T00:29:07.082Z,99202.69
2022-12-23T00:31:34.089Z,99196.63
2022-12-23T00:34:01.129Z,99186.31
2022-12-23T00:36:30.245Z,99171.41
2022-12-23T00:39:17.480Z,99160.72
2022-12-23T00:42:03.189Z,99146.25
2022-12-23T00:44:30.271Z,99159.06
2022-12-23T00:46:57.515Z,99155.47
2022-12-23T00:49:42.846Z,99153.41
2022-12-23T00:52:12.877Z,99160.88
2022-12-23T00:54:40.379Z,99166.75
2022-12-23T00:57:07.254Z,99170.50
2022-12-23T00:59:34.405Z,99165.13
2022-12-23T01:02:20.188Z,99159.97
2022-12-23T01:05:05.849Z,99147.75
2022-12-23T01:07:32.782Z,99147.31
2022-12-23T01:09:59.964Z,99151.25
2022-12-23T01:12:27.153Z,99156.44
2022-12-23T01:14:54.186Z,99158.16
2022-12-23T01:17:21.221Z,99167.38
2022-12-23T01:19:48.184Z,99163.84
2022-12-23T01:22:15.177Z,99170.63
2022-12-23T01:24:42.455Z,99169.34
2022-12-23T01:27:09.515Z,99179.81
2022-12-23T01:29:36.833Z,99175.31
2022-12-23T01:32:04.121Z,99155.72
2022-12-23T01:34:36.326Z,99171.81
2022-12-23T01:37:04.432Z,99184.56
2022-12-23T01:39:31.437Z,99159.38
2022-12-23T01:42:16.956Z,99169.13
2022-12-23T01:45:03.414Z,99158.97
2022-12-23T01:47:33.415Z,99153.56
2022-12-23T01:50:09.363Z,99154.41
2022-12-23T01:52:45.873Z,99156.06
2022-12-23T01:55:15.939Z,99140.34
2022-12-23T01:57:44.285Z,99126.84
2022-12-23T02:00:31.421Z,99133.94
2022-12-23T02:03:17.227Z,99128.66
2022-12-23T02:05:46.165Z,99136.22
2022-12-23T02:08:34.561Z,99126.50
2022-12-23T02:11:11.649Z,99125.97
2022-12-23T02:14:27.625Z,99126.63
2022-12-23T02:17:15.115Z,99133.22
2022-12-23T02:20:32.750Z,99112.72
2022-12-23T02:23:33.576Z,99123.75
2022-12-23T02:26:06.544Z,99123.25
2022-12-23T02:28:54.833Z,99128.59
2022-12-23T02:31:46.550Z,99109.88
2022-12-23T02:34:31.237Z,99128.19
2022-12-23T02:37:20.937Z,99128.00
2022-12-23T02:40:07.488Z,99119.38
2022-12-23T02:42:51.112Z,99127.81
2022-12-23T02:45:26.533Z,99135.09
2022-12-23T02:48:02.185Z,99126.22
2022-12-23T02:50:36.260Z,99139.44
2022-12-23T02:53:10.439Z,99133.16
2022-12-23T02:55:40.453Z,99129.47
2022-12-23T02:58:12.250Z,99130.84
2022-12-23T03:00:42.017Z,99124.25
2022-12-23T03:03:09.498Z,99120.28
2022-12-23T03:05:46.609Z,99120.50
2022-12-23T03:08:22.837Z,99120.56
2022-12-23T03:10:59.464Z,99128.25
2022-12-23T03:13:45.800Z,99142.59
2022-12-23T03:16:37.445Z,99140.50
2022-12-23T03:19:19.573Z,99137.22
2022-12-23T03:22:11.202Z,99144.63
2022-12-23T03:24:54.830Z,99145.19
2022-12-23T03:27:41.486Z,99140.34
2022-12-23T03:30:15.280Z,99138.88
2022-12-23T03:33:20.903Z,99137.59
2022-12-23T03:35:56.799Z,99147.59
2022-12-23T03:38:25.961Z,99134.78
2022-12-23T03:41:05.629Z,99138.81
2022-12-23T03:43:52.279Z,99136.16
2022-12-23T03:46:34.874Z,99149.56
2022-12-23T03:49:05.997Z,99136.78
2022-12-23T03:51:39.750Z,99141.19
2022-12-23T03:54:15.509Z,99140.44
2022-12-23T03:56:47.530Z,99140.94
2022-12-23T03:59:19.742Z,99142.81
2022-12-23T04:02:11.514Z,99137.22
2022-12-23T04:05:03.276Z,99139.31
2022-12-23T04:07:38.877Z,99142.38
2022-12-23T04:10:08.121Z,99131.25
2022-12-23T04:12:35.248Z,99135.94
2022-12-23T04:15:04.899Z,99131.59
2022-12-23T04:17:36.272Z,99120.72
2022-12-23T04:20:03.741Z,99128.06
2022-12-23T04:22:30.895Z,99123.03
2022-12-23T04:24:57.913Z,99114.09
2022-12-23T04:27:25.501Z,99117.47
2022-12-23T04:29:52.438Z,99126.81
2022-12-23T04:32:19.333Z,99122.22
2022-12-23T04:34:46.290Z,99125.97
2022-12-23T04:37:13.419Z,99127.03
2022-12-23T04:39:40.348Z,99126.47
2022-12-23T04:42:07.434Z,99124.78
2022-12-23T04:44:34.359Z,99119.84
2022-12-23T04:47:01.425Z,99123.53
2022-12-23T04:49:28.517Z,99124.13
2022-12-23T04:51:55.459Z,99120.63
2022-12-23T04:54:22.459Z,99115.78
2022-12-23T04:56:49.430Z,99107.41
2022-12-23T04:59:16.480Z,99116.13
2022-12-23T05:01:43.581Z,99108.03
2022-12-23T05:04:11.404Z,99105.31
2022-12-23T05:06:38.536Z,99097.28
2022-12-23T05:09:05.886Z,99110.72
2022-12-23T05:11:37.106Z,99110.94
2022-12-23T05:14:07.256Z,99113.28
2022-12-23T05:16:34.435Z,99104.44
2022-12-23T05:19:01.458Z,99102.66
2022-12-23T05:21:28.795Z,99099.03
2022-12-23T05:23:56.199Z,99100.09
2022-12-23T05:26:23.210Z,99097.47
2022-12-23T05:28:50.544Z,99100.47
2022-12-23T05:31:17.657Z,99100.28
2022-12-23T05:33:44.801Z,99106.63
2022-12-23T05:36:12.467Z,99097.94
2022-12-23T05:38:39.468Z,99103.09
2022-12-23T05:41:07.263Z,99094.31
2022-12-23T05:43:34.340Z,99088.84
2022-12-23T05:46:25.907Z,99077.91
2022-12-23T05:48:53.759Z,99078.50
2022-12-23T05:51:20.823Z,99079.66
2022-12-23T05:53:47.720Z,99088.06
2022-12-23T05:56:14.792Z,99078.53
2022-12-23T05:58:41.836Z,99082.56
2022-12-23T06:01:08.933Z,99086.75
2022-12-23T06:03:36.059Z,99079.75
2022-12-23T06:06:03.127Z,99059.69
2022-12-23T06:08:30.146Z,99089.31
2022-12-23T06:10:57.218Z,99089.81
2022-12-23T06:13:24.165Z,99091.00
2022-12-23T06:15:51.091Z,99087.00
2022-12-23T06:18:18.360Z,99079.34
2022-12-23T06:20:49.021Z,99081.00
2022-12-23T06:23:16.048Z,99079.53
2022-12-23T06:25:43.155Z,99073.59
2022-12-23T06:28:10.113Z,99082.06
2022-12-23T06:30:37.031Z,99078.09
2022-12-23T06:33:04.086Z,99085.50
2022-12-23T06:35:31.207Z,99088.41
2022-12-23T06:37:58.142Z,99092.03
2022-12-23T06:40:25.119Z,99094.78
2022-12-23T06:42:52.057Z,99095.25
2022-12-23T06:45:19.038Z,99090.81
2022-12-23T06:47:46.228Z,99093.59
2022-12-23T06:50:13.160Z,99093.81
2022-12-23T06:52:40.154Z,99087.34
2022-12-23T06:55:07.417Z,99083.94
2022-12-23T06:57:34.336Z,99081.38
2022-12-23T07:00:01.399Z,99089.41
2022-12-23T07:02:28.598Z,99088.41
2022-12-23T07:04:55.717Z,99073.28
2022-12-23T07:07:22.660Z,99082.78
2022-12-23T07:09:49.678Z,99075.97
2022-12-23T07:12:16.878Z,99077.50
2022-12-23T07:14:43.804Z,99070.81
2022-12-23T07:17:10.983Z,99071.56
2022-12-23T07:19:38.018Z,99075.09
2022-12-23T07:22:04.920Z,99075.56
2022-12-23T07:24:31.845Z,99076.84
2022-12-23T07:26:59.063Z,99075.09
2022-12-23T07:29:25.994Z,99072.25
2022-12-23T07:31:53.512Z,99066.06
2022-12-23T07:34:20.615Z,99062.50
2022-12-23T07:36:47.608Z,99051.38
2022-12-23T07:39:14.645Z,99055.44
2022-12-23T07:41:41.567Z,99049.66
2022-12-23T07:44:08.941Z,99048.78
2022-12-23T07:46:36.312Z,99048.97
2022-12-23T07:49:03.608Z,99039.38
2022-12-23T07:51:30.629Z,99046.06
2022-12-23T07:53:57.846Z,99037.13
2022-12-23T07:56:25.028Z,99032.53
2022-12-23T07:58:53.337Z,99048.00
2022-12-23T08:01:21.107Z,99056.53
2022-12-23T08:03:48.629Z,99052.50
2022-12-23T08:06:16.696Z,99041.25
2022-12-23T08:08:46.121Z,99052.72
2022-12-23T08:11:14.943Z,99049.56
2022-12-23T08:13:43.957Z,99041.59
2022-12-23T08:16:12.470Z,99051.09
2022-12-23T08:18:41.988Z,99055.66
2022-12-23T08:21:19.603Z,99063.16
2022-12-23T08:23:47.564Z,99051.91
2022-12-23T08:26:21.301Z,99049.91
2022-12-23T08:28:49.591Z,99049.66
2022-12-23T08:31:19.387Z,99050.63
2022-12-23T08:33:48.709Z,99042.16
2022-12-23T08:36:23.292Z,99030.81
2022-12-23T08:38:53.283Z,99037.00
2022-12-23T08:41:23.652Z,99028.56
2022-12-23T08:43:50.746Z,99014.13
2022-12-23T08:46:17.834Z,99019.63
2022-12-23T08:48:49.117Z,99013.78
2022-12-23T08:51:19.044Z,99013.19
2022-12-23T08:53:46.782Z,99016.81
2022-12-23T08:56:20.308Z,99011.66
2022-12-23T08:58:49.650Z,99010.25
2022-12-23T09:01:18.254Z,99000.28
2022-12-23T09:03:46.509Z,98987.50
2022-12-23T09:06:24.730Z,99000.41
2022-12-23T09:08:55.753Z,98999.59
2022-12-23T09:11:24.678Z,99000.41
2022-12-23T09:13:51.808Z,98994.66
2022-12-23T09:16:18.903Z,99002.75
2022-12-23T09:18:46.150Z,98988.19
2022-12-23T09:21:19.550Z,98983.75
2022-12-23T09:23:47.048Z,98974.13
2022-12-23T09:26:26.336Z,98971.56
2022-12-23T09:28:53.799Z,98958.97
2022-12-23T09:31:22.212Z,98971.09
2022-12-23T09:33:51.999Z,98959.56
2022-12-23T09:36:19.992Z,98945.09
2022-12-23T09:38:47.183Z,98951.81
2022-12-23T09:41:17.204Z,98946.66
2022-12-23T09:43:58.875Z,98962.25
2022-12-23T09:46:29.892Z,98954.63
2022-12-23T09:48:56.810Z,98954.41
2022-12-23T09:51:24.241Z,98956.88
2022-12-23T09:53:59.903Z,98946.19
2022-12-23T09:56:40.009Z,98948.53
2022-12-23T09:59:27.216Z,98939.38
2022-12-23T10:02:04.981Z,98937.97
2022-12-23T10:04:44.426Z,98938.78
2022-12-23T10:07:29.900Z,98934.69
2022-12-23T10:09:58.195Z,98922.13
2022-12-23T10:12:42.418Z,98926.59
2022-12-23T10:15:41.485Z,98926.47
2022-12-23T10:18:37.663Z,98916.16
2022-12-23T10:21:11.796Z,98906.41
2022-12-23T10:23:42.869Z,98890.41
2022-12-23T10:26:25.554Z,98883.47
2022-12-23T10:29:20.183Z,98890.41
2022-12-23T10:32:04.330Z,98876.91
2022-12-23T10:34:40.387Z,98875.94
2022-12-23T10:37:21.283Z,98884.84
2022-12-23T10:40:09.742Z,98882.66
2022-12-23T10:42:50.571Z,98887.75
2022-12-23T10:45:23.035Z,98883.75
2022-12-23T10:48:13.754Z,98886.06
2022-12-23T10:51:15.029Z,98891.22
2022-12-23T10:53:45.751Z,98888.19
2022-12-23T10:56:13.861Z,98877.44
2022-12-23T10:58:45.176Z,98876.91
2022-12-23T11:01:18.892Z,98884.28
2022-12-23T11:04:10.237Z,98883.47
2022-12-23T11:06:42.519Z,98869.66
2022-12-23T11:09:28.571Z,98872.00
2022-12-23T11:12:02.695Z,98875.78
2022-12-23T11:14:38.846Z,98872.00
2022-12-23T11:17:19.383Z,98870.81
2022-12-23T11:19:46.672Z,98875.63
2022-12-23T11:22:25.476Z,98883.13
2022-12-23T11:24:52.921Z,98874.34
2022-12-23T11:27:20.040Z,98888.44
2022-12-23T11:29:54.301Z,98882.88
2022-12-23T11:32:26.302Z,98887.84
2022-12-23T11:34:55.897Z,98880.31
2022-12-23T11:37:42.173Z,98880.22
2022-12-23T11:40:27.917Z,98879.59
2022-12-23T11:43:01.790Z,98873.47
2022-12-23T11:45:33.030Z,98875.09
2022-12-23T11:48:00.196Z,98867.91
2022-12-23T11:50:40.892Z,98863.16
2022-12-23T11:53:22.696Z,98860.94
2022-12-23T11:56:10.312Z,98875.00
2022-12-23T11:58:46.710Z,98878.53
2022-12-23T12:01:18.948Z,98874.53
2022-12-23T12:03:53.426Z,98864.19
2022-12-23T12:06:21.992Z,98859.03
2022-12-23T12:08:51.787Z,98852.38
2022-12-23T12:11:25.134Z,98852.81
2022-12-23T12:14:01.675Z,98855.75
2022-12-23T12:16:31.561Z,98861.97
2022-12-23T12:19:05.499Z,98857.22
2022-12-23T12:21:36.907Z,98841.63
2022-12-23T12:24:19.182Z,98852.28
2022-12-23T12:26:52.695Z,98842.00
2022-12-23T12:29:31.211Z,98857.47
2022-12-23T12:32:00.211Z,98847.53
2022-12-23T12:34:58.978Z,98847.66
2022-12-23T12:37:39.827Z,98847.72
2022-12-23T12:40:18.462Z,98838.59
2022-12-23T12:42:54.197Z,98842.81
2022-12-23T12:45:25.210Z,98835.34
2022-12-23T12:48:22.956Z,98840.59
2022-12-23T12:51:27.771Z,98840.00
2022-12-23T12:54:04.464Z,98838.31
2022-12-23T12:56:47.129Z,98838.28
2022-12-23T12:59:26.115Z,98829.38
2022-12-23T13:02:11.503Z,98849.34
2022-12-23T13:04:41.076Z,98833.72
2022-12-23T13:07:25.713Z,98830.41
2022-12-23T13:10:03.399Z,98836.66
2022-12-23T13:12:58.476Z,98824.72
2022-12-23T13:15:52.987Z,98826.47
2022-12-23T13:18:44.213Z,98836.47
2022-12-23T13:21:12.344Z,98828.44
2022-12-23T13:24:13.011Z,98823.25
2022-12-23T13:26:53.876Z,98832.09
2022-12-23T13:29:53.087Z,98829.81
2022-12-23T13:32:37.589Z,98828.44
2022-12-23T13:35:13.620Z,98832.38
2022-12-23T13:38:22.008Z,98818.81
2022-12-23T13:41:26.657Z,98814.31
2022-12-23T13:43:59.525Z,98811.06
2022-12-23T13:46:35.836Z,98819.19
2022-12-23T13:49:27.797Z,98819.38
2022-12-23T13:52:07.253Z,98812.91
2022-12-23T13:55:23.488Z,98815.06
2022-12-23T13:58:03.957Z,98810.69
2022-12-23T14:00:46.653Z,98758.72
2022-12-23T14:03:22.979Z,98816.47
2022-12-23T14:05:52.023Z,98802.25
2022-12-23T14:08:21.971Z,98814.31
2022-12-23T14:11:11.969Z,98821.75
2022-12-23T14:13:51.245Z,98812.47
2022-12-23T14:16:21.402Z,98816.22
2022-12-23T14:19:00.563Z,98811.50
2022-12-23T14:21:46.307Z,98805.28
2022-12-23T14:24:44.267Z,98798.63
2022-12-23T14:27:14.132Z,98806.09
2022-12-23T14:30:05.167Z,98799.56
2022-12-23T14:32:39.692Z,98789.97
2022-12-23T14:35:45.007Z,98789.28
2022-12-23T14:38:14.963Z,98791.03
2022-12-23T14:40:42.176Z,98787.13
2022-12-23T14:43:46.663Z,98785.50
2022-12-23T14:46:35.228Z,98781.34
2022-12-23T14:49:36.779Z,98774.34
2022-12-23T14:51:51.071Z,98772.84
2022-12-23T14:54:37.064Z,98768.34
2022-12-23T14:57:17.968Z,98779.56
2022-12-23T15:00:01.548Z,98766.09
2022-12-23T15:02:37.585Z,98763.88
2022-12-23T15:05:05.204Z,98769.03
2022-12-23T15:07:42.412Z,98764.56
2022-12-23T15:10:22.796Z,98758.94
2022-12-23T15:12:54.952Z,98776.78
2022-12-23T15:15:25.404Z,98759.19
2022-12-23T15:18:09.970Z,98768.31
2022-12-23T15:20:37.348Z,98762.50
2022-12-23T15:23:15.526Z,98764.00
2022-12-23T15:25:48.574Z,98756.25
2022-12-23T15:28:26.422Z,98763.94
2022-12-23T15:30:55.593Z,98752.84
2022-12-23T15:36:28.049Z,98768.22
2022-12-23T15:38:55.226Z,98769.03
2022-12-23T15:41:23.200Z,98766.22
2022-12-23T15:43:50.453Z,98756.16
2022-12-23T15:46:29.257Z,98758.41
2022-12-23T15:48:58.011Z,98745.84
2022-12-23T15:54:28.153Z,98746.88
2022-12-23T15:56:58.687Z,98744.41
2022-12-23T15:59:29.707Z,98733.56
2022-12-23T16:01:57.013Z,98742.81
2022-12-23T16:04:29.247Z,98746.81
2022-12-23T16:06:56.393Z,98751.41
2022-12-23T16:09:31.381Z,98755.06
2022-12-23T16:12:17.878Z,98759.72
2022-12-23T16:14:54.473Z,98748.44
2022-12-23T16:17:39.498Z,98754.19
2022-12-23T16:20:40.163Z,98759.88
2022-12-23T16:23:09.899Z,98746.69
2022-12-23T16:25:37.825Z,98750.91
2022-12-23T16:28:12.937Z,98750.41
2022-12-23T16:30:42.116Z,98755.94
2022-12-23T16:33:33.675Z,98749.66
2022-12-23T16:36:23.914Z,98754.81
2022-12-23T16:38:53.457Z,98748.56
2022-12-23T16:41:20.725Z,98746.13
2022-12-23T16:43:52.489Z,98743.16
2022-12-23T16:46:22.398Z,98744.91
2022-12-23T16:48:52.644Z,98735.84
2022-12-23T16:51:21.974Z,98750.72
2022-12-23T16:53:55.354Z,98751.00
2022-12-23T16:56:27.645Z,98752.91
2022-12-23T16:58:54.594Z,98745.50
2022-12-23T17:01:39.822Z,98733.56
2022-12-23T17:04:07.558Z,98752.28
2022-12-23T17:06:36.046Z,98754.00
2022-12-23T17:09:05.725Z,98747.88
2022-12-23T17:11:37.381Z,98746.13
2022-12-23T17:14:10.432Z,98748.59
2022-12-23T17:16:40.847Z,98749.41
2022-12-23T17:19:07.843Z,98750.19
2022-12-23T17:21:39.223Z,98749.66
2022-12-23T17:24:25.766Z,98746.88
2022-12-23T17:26:55.399Z,98752.66
2022-12-23T17:29:22.647Z,98754.81
2022-12-23T17:31:50.285Z,98749.94
2022-12-23T17:34:19.943Z,98746.38
2022-12-23T17:36:50.390Z,98749.94
2022-12-23T17:39:21.335Z,98743.34
2022-12-23T17:41:48.880Z,98729.47
2022-12-23T17:44:17.974Z,98753.50
2022-12-23T17:46:46.272Z,98751.03
2022-12-23T17:49:13.338Z,98749.16
2022-12-23T17:51:41.522Z,98748.50
2022-12-23T17:54:20.930Z,98731.97
2022-12-23T17:56:47.901Z,98752.16
2022-12-23T17:59:15.408Z,98749.66
2022-12-23T18:01:42.585Z,98751.66
2022-12-23T18:04:09.613Z,98760.38
2022-12-23T18:06:36.539Z,98753.94
2022-12-23T18:09:03.633Z,98758.44
2022-12-23T18:11:33.880Z,98753.81
2022-12-23T18:14:01.584Z,98754.75
2022-12-23T18:16:29.027Z,98762.88
2022-12-23T18:18:56.279Z,98765.81
2022-12-23T18:21:25.878Z,98764.22
2022-12-23T18:23:55.108Z,98759.59
2022-12-23T18:26:22.192Z,98748.41
2022-12-23T18:28:50.447Z,98758.34
2022-12-23T18:31:20.393Z,98760.66
2022-12-23T18:33:47.947Z,98767.94
2022-12-23T18:36:30.731Z,98764.28
2022-12-23T18:38:57.923Z,98763.75
2022-12-23T18:41:25.963Z,98761.38
2022-12-23T18:43:53.573Z,98761.88
2022-12-23T18:46:21.113Z,98762.75
2022-12-23T18:48:48.698Z,98766.56
2022-12-23T18:51:18.212Z,98765.97
2022-12-23T18:53:46.721Z,98764.66
2022-12-23T18:56:15.391Z,98767.88
2022-12-23T18:58:42.749Z,98762.94
2022-12-23T19:01:14.232Z,98759.69
2022-12-23T19:03:41.526Z,98774.69
2022-12-23T19:06:09.674Z,98776.31
2022-12-23T19:08:37.694Z,98777.59
2022-12-23T19:11:20.791Z,98771.25
2022-12-23T19:13:47.882Z,98776.91
2022-12-23T19:16:17.911Z,98778.59
2022-12-23T19:18:45.979Z,98785.78
2022-12-23T19:21:13.039Z,98780.41
2022-12-23T19:23:41.232Z,98773.81
2022-12-23T19:26:13.329Z,98783.69
2022-12-23T19:28:44.408Z,98782.06
2022-12-23T19:31:14.740Z,98766.69
2022-12-23T19:33:44.103Z,98778.97
2022-12-23T19:36:16.979Z,98789.50
2022-12-23T19:38:44.186Z,98778.91
2022-12-23T19:41:11.307Z,98789.25
2022-12-23T19:43:39.122Z,98795.19
2022-12-23T19:46:09.125Z,98801.72
2022-12-23T19:48:37.377Z,98804.31
2022-12-23T19:51:12.921Z,98803.38
2022-12-23T19:53:42.037Z,98809.56
2022-12-23T19:56:13.130Z,98802.94
2022-12-23T19:58:42.100Z,98814.63
2022-12-23T20:01:24.140Z,98811.06
2022-12-23T20:03:52.495Z,98820.41
2022-12-23T20:06:33.342Z,98825.78
2022-12-23T20:09:04.277Z,98816.00
2022-12-23T20:11:36.819Z,98825.22
2022-12-23T20:14:04.628Z,98812.84
2022-12-23T20:16:32.205Z,98831.88
2022-12-23T20:18:59.416Z,98831.50
2022-12-23T20:21:26.451Z,98828.22
2022-12-23T20:23:53.501Z,98831.69
2022-12-23T20:26:20.627Z,98828.78
2022-12-23T20:28:47.589Z,98836.41
2022-12-23T20:31:17.625Z,98827.91
2022-12-23T20:33:45.689Z,98827.41
2022-12-23T20:36:15.192Z,98831.00
2022-12-23T20:38:45.157Z,98837.81
2022-12-23T20:41:15.005Z,98836.41
2022-12-23T20:43:42.606Z,98846.56
2022-12-23T20:46:13.113Z,98841.72
2022-12-23T20:48:40.577Z,98840.47
2022-12-23T20:51:13.446Z,98842.34
2022-12-23T20:53:41.373Z,98830.00
2022-12-23T20:56:14.029Z,98847.78
2022-12-23T20:58:56.125Z,98850.22
2022-12-23T21:01:26.796Z,98855.25
2022-12-23T21:03:55.511Z,98850.22
2022-12-23T21:06:22.810Z,98844.00
2022-12-23T21:08:49.900Z,98860.69
2022-12-23T21:11:16.893Z,98860.41
2022-12-23T21:13:47.724Z,98859.50
2022-12-23T21:16:15.284Z,98874.53
2022-12-23T21:18:44.151Z,98879.72
2022-12-23T21:21:12.579Z,98875.03
2022-12-23T21:23:41.462Z,98874.53
2022-12-23T21:26:10.302Z,98879.53
2022-12-23T21:28:38.470Z,98865.44
2022-12-23T21:31:06.682Z,98892.69
2022-12-23T21:33:41.400Z,98900.91
2022-12-23T21:36:10.913Z,98892.88
2022-12-23T21:38:41.577Z,98896.09
2022-12-23T21:41:12.579Z,98900.47
2022-12-23T21:43:39.679Z,98887.72
2022-12-23T21:46:10.588Z,98892.03
2022-12-23T21:48:38.610Z,98890.31
2022-12-23T21:51:14.154Z,98888.69
2022-12-23T21:53:42.709Z,98895.03
2022-12-23T21:56:12.765Z,98897.53
2022-12-23T21:58:40.208Z,98893.56
2022-12-23T22:01:18.952Z,98898.34
2022-12-23T22:03:47.686Z,98908.34
2022-12-23T22:06:17.595Z,98909.22
2022-12-23T22:08:44.586Z,98900.91
2022-12-23T22:11:17.620Z,98892.50
2022-12-23T22:13:45.629Z,98916.41
2022-12-23T22:16:24.235Z,98919.75
2022-12-23T22:18:52.297Z,98918.00
2022-12-23T22:21:22.985Z,98915.41
2022-12-23T22:23:51.280Z,98923.13
2022-12-23T22:26:26.010Z,98923.38
2022-12-23T22:28:55.895Z,98931.63
2022-12-23T22:31:45.890Z,98933.34
2022-12-23T22:34:15.113Z,98928.97
2022-12-23T22:36:42.518Z,98924.38
2022-12-23T22:39:19.394Z,98936.81
2022-12-23T22:41:47.360Z,98931.50
2022-12-23T22:44:15.253Z,98935.38
2022-12-23T22:46:42.937Z,98933.97
2022-12-23T22:49:14.004Z,98942.88
2022-12-23T22:51:42.541Z,98937.13
2022-12-23T22:54:09.896Z,98933.03
2022-12-23T22:56:37.258Z,98934.72
2022-12-23T22:59:05.010Z,98942.09
2022-12-23T23:01:34.710Z,98955.41
2022-12-23T23:04:03.395Z,98959.59
2022-12-23T23:06:34.155Z,98963.34
2022-12-23T23:09:01.466Z,98963.66
2022-12-23T23:11:29.730Z,98960.34
2022-12-23T23:13:57.042Z,98954.84
2022-12-23T23:16:25.295Z,98969.53
2022-12-23T23:18:53.755Z,98974.78
2022-12-23T23:21:21.296Z,98969.38
2022-12-23T23:23:48.598Z,98965.78
2022-12-23T23:26:16.197Z,98975.03
2022-12-23T23:28:43.761Z,98982.88
2022-12-23T23:33:58.397Z,98987.38
2022-12-23T23:36:25.674Z,98987.44
2022-12-23T23:38:52.714Z,98994.84
2022-12-23T23:41:23.254Z,98999.94
2022-12-23T23:43:51.599Z,98991.38
2022-12-23T23:46:18.734Z,98985.38
2022-12-23T23:48:45.713Z,98988.47
2022-12-23T23:51:12.906Z,98987.00
2022-12-23T23:53:40.507Z,98995.41
2022-12-23T23:56:08.548Z,98998.44
2022-12-23T23:58:36.717Z,98988.16
